メインページ
METAR-TAF:

METAR-TAF

空港 :

カラカス, ベネズエラ

シモン・ボリバル国際空港

緯度: 10-36N, 経度: 066-59W, 海抜: 43m

現時点の気象観測

当レポートは20分前の23:00(UTC)に作成
北東の風 4kt
気温 29°C
湿度 62%
気圧 1012 hPa
視程10km以上
高度1600ftの雲は散在している

METAR: SVMI 272300Z 05004KT 9999 SCT016 29/21 Q1012

時間: 19:20 (23:20 UTC)

予報

当レポートは7時間20分前の16:00(UTC)に作成
予報は27日の 18時(UTC)から 28日の 18時(UTC)まで有効
西/北西の風 4kt
視程10km以上
高度1600ftの雲は散在している
27日の 18時(UTC)から 27日の 22時(UTC)まで徐々に
東/北東の風 6kt
高度7000ftの雲は散在している

TAF: SVMI 271600Z 2718/2818 29004KT 9999 SCT016 TX34/18Z TN25/08Z BECMG 2718/2722 07006KT SCT070

4,000以上の空港の気象観測と天気予報(METAR報とTAF報)

利用可能な観測所は地図上に黄色い丸と赤い丸で示す。

丸の上にカーソルを重ねると観測所名を参照できる。

次にクリックすると気象観測と天気予報を参照できる。

マップの切り替え:黒色「×」印の緑ボタンをクリックして拡大、「-」印の緑ボタンをクリックして縮小、緑色の三角印をクリックして隣りの地図に切り替え


METAR-TAF: